createdAt,value
2023-03-29T00:01:36.029Z,100951.48
2023-03-29T00:05:45.001Z,100944.45
2023-03-29T00:09:52.999Z,100939.33
2023-03-29T00:14:00.741Z,100941.39
2023-03-29T00:18:09.363Z,100945.88
2023-03-29T00:22:17.584Z,100946.53
2023-03-29T00:26:25.048Z,100951.69
2023-03-29T00:30:32.773Z,100955.16
2023-03-29T00:34:46.194Z,100954.70
2023-03-29T00:38:57.089Z,100950.59
2023-03-29T00:43:04.581Z,100952.20
2023-03-29T00:47:12.138Z,100950.34
2023-03-29T00:51:20.201Z,100941.48
2023-03-29T00:55:32.013Z,100937.27
2023-03-29T00:59:40.340Z,100933.70
2023-03-29T01:03:54.702Z,100930.83
2023-03-29T01:08:07.428Z,100927.98
2023-03-29T01:12:19.226Z,100920.83
2023-03-29T01:16:28.648Z,100920.79
2023-03-29T01:20:49.367Z,100912.77
2023-03-29T01:25:07.707Z,100907.67
2023-03-29T01:29:18.586Z,100900.52
2023-03-29T01:33:29.486Z,100895.11
2023-03-29T01:37:41.400Z,100895.63
2023-03-29T01:41:53.161Z,100895.17
2023-03-29T01:46:04.736Z,100887.09
2023-03-29T01:50:17.803Z,100887.49
2023-03-29T01:54:28.347Z,100885.61
2023-03-29T01:58:38.504Z,100887.17
2023-03-29T02:02:47.508Z,100891.13
2023-03-29T02:06:57.553Z,100892.27
2023-03-29T02:11:05.460Z,100892.86
2023-03-29T02:15:18.574Z,100898.52
2023-03-29T02:19:28.410Z,100896.20
2023-03-29T02:23:41.488Z,100892.84
2023-03-29T02:27:49.086Z,100887.77
2023-03-29T02:32:00.816Z,100880.61
2023-03-29T02:36:11.758Z,100876.65
2023-03-29T02:40:24.349Z,100874.64
2023-03-29T02:44:37.513Z,100869.71
2023-03-29T02:48:44.997Z,100867.55
2023-03-29T02:52:57.406Z,100861.02
2023-03-29T02:57:07.685Z,100859.66
2023-03-29T03:01:15.063Z,100852.02
2023-03-29T03:05:24.957Z,100849.59
2023-03-29T03:09:34.640Z,100841.60
2023-03-29T03:13:42.985Z,100839.86
2023-03-29T03:17:50.449Z,100838.11
2023-03-29T03:21:58.447Z,100830.80
2023-03-29T03:26:06.094Z,100824.88
2023-03-29T03:30:16.177Z,100825.04
2023-03-29T03:34:23.780Z,100815.16
2023-03-29T03:38:31.952Z,100807.74
2023-03-29T03:42:40.648Z,100802.09
2023-03-29T03:46:48.251Z,100798.30
2023-03-29T03:50:57.277Z,100792.74
2023-03-29T03:55:05.986Z,100795.52
2023-03-29T03:59:13.826Z,100799.31
2023-03-29T04:03:22.927Z,100800.11
2023-03-29T04:07:31.492Z,100798.66
2023-03-29T04:11:39.035Z,100800.52
2023-03-29T04:15:50.077Z,100800.27
2023-03-29T04:19:58.708Z,100799.00
2023-03-29T04:24:07.293Z,100800.66
2023-03-29T04:28:16.587Z,100803.20
2023-03-29T04:32:25.155Z,100801.98
2023-03-29T04:36:32.833Z,100802.71
2023-03-29T04:40:40.550Z,100800.55
2023-03-29T04:44:50.252Z,100800.44
2023-03-29T04:49:03.187Z,100799.47
2023-03-29T04:53:16.756Z,100799.50
2023-03-29T04:57:29.387Z,100795.53
2023-03-29T05:01:38.293Z,100790.34
2023-03-29T05:05:48.680Z,100785.70
2023-03-29T05:09:57.144Z,100778.11
2023-03-29T05:14:07.456Z,100776.79
2023-03-29T05:18:22.890Z,100773.55
2023-03-29T05:22:32.358Z,100769.80
2023-03-29T05:26:45.275Z,100765.86
2023-03-29T05:31:04.461Z,100762.33
2023-03-29T05:35:13.043Z,100766.10
2023-03-29T05:39:26.664Z,100765.00
2023-03-29T05:43:42.904Z,100762.81
2023-03-29T05:47:52.413Z,100761.83
2023-03-29T05:52:02.579Z,100755.05
2023-03-29T05:56:15.611Z,100753.30
2023-03-29T06:00:30.158Z,100747.71
2023-03-29T06:04:45.121Z,100744.17
2023-03-29T06:08:53.117Z,100743.60
2023-03-29T06:13:09.388Z,100741.06
2023-03-29T06:17:17.835Z,100735.92
2023-03-29T06:21:33.308Z,100737.73
2023-03-29T06:25:45.263Z,100732.52
2023-03-29T06:30:01.590Z,100718.77
2023-03-29T06:34:12.451Z,100726.59
2023-03-29T06:38:26.913Z,100726.66
2023-03-29T06:42:39.203Z,100727.34
2023-03-29T06:46:49.722Z,100728.89
2023-03-29T06:50:57.644Z,100728.52
2023-03-29T06:55:08.794Z,100734.04
2023-03-29T06:59:35.013Z,100729.98
2023-03-29T07:03:46.810Z,100722.73
2023-03-29T07:08:00.465Z,100727.59
2023-03-29T07:12:13.540Z,100726.95
2023-03-29T07:16:30.815Z,100731.70
2023-03-29T07:20:40.912Z,100725.61
2023-03-29T07:24:54.685Z,100726.00
2023-03-29T07:29:03.761Z,100726.88
2023-03-29T07:33:13.244Z,100725.13
2023-03-29T07:37:32.441Z,100721.37
2023-03-29T07:41:40.900Z,100715.27
2023-03-29T07:45:49.339Z,100711.29
2023-03-29T07:49:57.524Z,100709.95
2023-03-29T07:54:07.782Z,100699.45
2023-03-29T07:58:17.935Z,100696.34
2023-03-29T08:02:27.556Z,100695.84
2023-03-29T08:06:35.527Z,100696.69
2023-03-29T08:10:46.166Z,100695.63
2023-03-29T08:14:55.528Z,100689.11
2023-03-29T08:19:03.878Z,100688.40
2023-03-29T08:23:14.050Z,100689.70
2023-03-29T08:27:22.664Z,100688.52
2023-03-29T08:31:30.876Z,100683.27
2023-03-29T08:35:40.451Z,100680.80
2023-03-29T08:39:49.249Z,100679.23
2023-03-29T08:44:16.498Z,100674.20
2023-03-29T08:48:29.955Z,100671.80
2023-03-29T08:52:40.526Z,100663.17
2023-03-29T08:56:50.049Z,100661.64
2023-03-29T09:00:59.606Z,100659.33
2023-03-29T09:05:20.732Z,100657.33
2023-03-29T09:09:36.249Z,100654.79
2023-03-29T09:13:50.994Z,100649.04
2023-03-29T09:18:07.176Z,100643.67
2023-03-29T09:22:18.528Z,100640.66
2023-03-29T09:26:32.110Z,100640.18
2023-03-29T09:30:53.385Z,100636.43
2023-03-29T09:35:09.360Z,100626.19
2023-03-29T09:39:18.443Z,100627.52
2023-03-29T09:43:33.238Z,100620.23
2023-03-29T09:47:43.250Z,100616.50
2023-03-29T09:51:52.980Z,100617.32
2023-03-29T09:56:01.115Z,100611.30
2023-03-29T10:00:14.802Z,100607.09
2023-03-29T10:04:24.837Z,100608.42
2023-03-29T10:08:37.867Z,100599.52
2023-03-29T10:12:50.549Z,100599.20
2023-03-29T10:16:59.574Z,100591.03
2023-03-29T10:21:11.449Z,100581.84
2023-03-29T10:25:20.241Z,100582.90
2023-03-29T10:29:30.201Z,100580.16
2023-03-29T10:33:39.425Z,100572.88
2023-03-29T10:37:54.761Z,100565.61
2023-03-29T10:42:04.139Z,100560.42
2023-03-29T10:46:14.587Z,100560.46
2023-03-29T10:50:23.844Z,100557.21
2023-03-29T10:54:32.292Z,100550.02
2023-03-29T10:58:48.851Z,100539.08
2023-03-29T11:03:13.115Z,100532.88
2023-03-29T11:07:37.849Z,100528.77
2023-03-29T11:12:14.425Z,100524.73
2023-03-29T11:16:34.047Z,100519.91
2023-03-29T11:20:45.964Z,100513.30
2023-03-29T11:25:08.372Z,100502.05
2023-03-29T11:29:21.939Z,100496.72
2023-03-29T11:33:39.063Z,100489.63
2023-03-29T11:37:54.658Z,100485.77
2023-03-29T11:42:09.616Z,100477.58
2023-03-29T11:46:22.327Z,100472.59
2023-03-29T11:50:35.339Z,100467.32
2023-03-29T11:54:47.852Z,100471.14
2023-03-29T11:58:59.839Z,100465.46
2023-03-29T12:03:12.450Z,100458.84
2023-03-29T12:07:22.765Z,100451.31
2023-03-29T12:11:37.541Z,100451.02
2023-03-29T12:15:47.605Z,100448.48
2023-03-29T12:20:04.561Z,100441.27
2023-03-29T12:24:15.280Z,100438.44
2023-03-29T12:28:34.582Z,100432.74
2023-03-29T12:32:56.266Z,100424.12
2023-03-29T12:37:18.731Z,100419.59
2023-03-29T12:41:29.365Z,100409.83
2023-03-29T12:45:41.557Z,100407.89
2023-03-29T12:49:55.308Z,100402.73
2023-03-29T12:54:11.718Z,100395.42
2023-03-29T12:58:54.806Z,100396.75
2023-03-29T13:03:21.843Z,100394.35
2023-03-29T13:07:45.506Z,100392.70
2023-03-29T13:12:03.925Z,100392.02
2023-03-29T13:16:21.818Z,100396.45
2023-03-29T13:20:48.189Z,100398.02
2023-03-29T13:25:08.309Z,100397.83
2023-03-29T13:29:49.618Z,100392.99
2023-03-29T13:34:02.439Z,100394.34
2023-03-29T13:38:19.823Z,100393.71
2023-03-29T13:42:42.784Z,100385.84
2023-03-29T13:46:50.712Z,100380.52
2023-03-29T13:51:02.155Z,100377.23
2023-03-29T13:55:14.669Z,100369.11
2023-03-29T13:59:26.786Z,100365.13
2023-03-29T14:03:40.574Z,100355.52
2023-03-29T14:07:54.257Z,100349.05
2023-03-29T14:12:03.256Z,100352.14
2023-03-29T14:16:18.291Z,100355.30
2023-03-29T14:20:29.151Z,100359.30
2023-03-29T14:24:42.022Z,100363.95
2023-03-29T14:28:50.998Z,100363.08
2023-03-29T14:32:59.888Z,100367.84
2023-03-29T14:37:11.848Z,100360.52
2023-03-29T14:41:19.978Z,100347.23
2023-03-29T14:45:29.231Z,100339.98
2023-03-29T14:49:37.168Z,100332.42
2023-03-29T14:53:45.308Z,100324.28
2023-03-29T14:57:55.643Z,100322.83
2023-03-29T15:02:03.650Z,100325.50
2023-03-29T15:06:12.456Z,100329.17
2023-03-29T15:10:22.534Z,100329.48
2023-03-29T15:14:35.496Z,100317.31
2023-03-29T15:18:47.031Z,100319.50
2023-03-29T15:23:01.637Z,100317.29
2023-03-29T15:27:18.540Z,100319.99
2023-03-29T15:31:35.189Z,100323.08
2023-03-29T15:36:03.025Z,100322.48
2023-03-29T15:40:17.911Z,100329.19
2023-03-29T15:44:28.542Z,100329.50
2023-03-29T15:48:36.248Z,100324.54
2023-03-29T15:52:46.149Z,100321.58
2023-03-29T15:56:56.698Z,100312.76
2023-03-29T16:01:11.666Z,100318.64
2023-03-29T16:05:22.346Z,100322.58
2023-03-29T16:09:30.934Z,100321.66
2023-03-29T16:13:39.306Z,100317.30
2023-03-29T16:17:47.538Z,100314.07
2023-03-29T16:21:57.067Z,100315.68
2023-03-29T16:26:06.549Z,100318.35
2023-03-29T16:30:16.570Z,100326.20
2023-03-29T16:34:27.797Z,100326.15
2023-03-29T16:38:37.775Z,100319.50
2023-03-29T16:42:47.228Z,100315.70
2023-03-29T16:46:58.199Z,100316.27
2023-03-29T16:51:10.350Z,100313.61
2023-03-29T16:55:20.254Z,100314.13
2023-03-29T16:59:29.166Z,100316.27
2023-03-29T17:03:38.809Z,100307.56
2023-03-29T17:07:47.035Z,100303.90
2023-03-29T17:11:55.458Z,100309.21
2023-03-29T17:16:03.904Z,100300.92
2023-03-29T17:20:14.633Z,100303.85
2023-03-29T17:24:23.012Z,100302.27
2023-03-29T17:28:31.946Z,100292.73
2023-03-29T17:32:41.420Z,100294.47
2023-03-29T17:36:49.287Z,100298.87
2023-03-29T17:40:57.672Z,100294.39
2023-03-29T17:45:07.377Z,100294.83
2023-03-29T17:49:15.333Z,100298.95
2023-03-29T17:53:23.597Z,100298.84
2023-03-29T17:57:33.054Z,100303.52
2023-03-29T18:01:41.202Z,100302.54
2023-03-29T18:05:50.981Z,100311.33
2023-03-29T18:09:59.204Z,100311.51
2023-03-29T18:14:07.548Z,100308.84
2023-03-29T18:18:15.856Z,100309.94
2023-03-29T18:22:24.192Z,100309.40
2023-03-29T18:26:33.669Z,100308.75
2023-03-29T18:30:41.613Z,100310.34
2023-03-29T18:34:49.850Z,100309.24
2023-03-29T18:39:05.247Z,100305.10
2023-03-29T18:43:14.093Z,100304.52
2023-03-29T18:47:22.579Z,100304.90
2023-03-29T18:51:31.588Z,100304.42
2023-03-29T18:55:39.701Z,100304.14
2023-03-29T18:59:47.593Z,100302.48
2023-03-29T19:03:56.230Z,100300.61
2023-03-29T19:08:05.977Z,100294.38
2023-03-29T19:12:15.774Z,100296.27
2023-03-29T19:16:24.336Z,100296.69
2023-03-29T19:20:33.574Z,100294.81
2023-03-29T19:24:41.740Z,100296.15
2023-03-29T19:28:50.233Z,100293.20
2023-03-29T19:32:58.128Z,100292.59
2023-03-29T19:37:05.563Z,100287.02
2023-03-29T19:41:13.254Z,100278.88
2023-03-29T19:45:21.686Z,100282.80
2023-03-29T19:49:29.868Z,100278.33
2023-03-29T19:53:39.880Z,100275.11
2023-03-29T19:57:50.030Z,100276.73
2023-03-29T20:01:58.146Z,100269.61
2023-03-29T20:06:08.534Z,100265.11
2023-03-29T20:10:16.810Z,100258.82
2023-03-29T20:14:24.219Z,100256.23
2023-03-29T20:18:32.543Z,100250.69
2023-03-29T20:22:42.339Z,100249.77
2023-03-29T20:26:49.760Z,100250.16
2023-03-29T20:30:57.992Z,100252.26
2023-03-29T20:35:06.285Z,100253.63
2023-03-29T20:39:17.800Z,100252.15
2023-03-29T20:43:26.014Z,100247.85
2023-03-29T20:47:34.716Z,100241.47
2023-03-29T20:51:43.247Z,100234.56
2023-03-29T20:55:53.500Z,100231.29
2023-03-29T21:00:02.153Z,100225.04
2023-03-29T21:04:11.365Z,100218.78
2023-03-29T21:08:20.628Z,100218.08
2023-03-29T21:12:28.506Z,100215.39
2023-03-29T21:16:36.343Z,100209.76
2023-03-29T21:20:44.156Z,100200.77
2023-03-29T21:24:52.124Z,100196.81
2023-03-29T21:29:00.695Z,100196.84
2023-03-29T21:33:09.063Z,100192.08
2023-03-29T21:37:19.810Z,100189.27
2023-03-29T21:41:28.082Z,100181.78
2023-03-29T21:45:36.465Z,100183.02
2023-03-29T21:49:45.693Z,100182.67
2023-03-29T21:53:53.293Z,100173.52
2023-03-29T21:58:02.555Z,100168.84
2023-03-29T22:02:10.693Z,100166.80
2023-03-29T22:06:18.387Z,100162.17
2023-03-29T22:10:26.784Z,100157.27
2023-03-29T22:14:35.995Z,100153.58
2023-03-29T22:18:44.352Z,100144.42
2023-03-29T22:22:53.947Z,100137.67
2023-03-29T22:27:02.809Z,100132.90
2023-03-29T22:31:11.844Z,100129.44
2023-03-29T22:35:20.981Z,100129.19
2023-03-29T22:39:28.635Z,100132.74
2023-03-29T22:43:36.768Z,100126.36
2023-03-29T22:47:48.094Z,100124.77
2023-03-29T22:51:55.581Z,100122.32
2023-03-29T22:56:03.755Z,100117.42
2023-03-29T23:00:13.917Z,100110.08
2023-03-29T23:04:21.895Z,100107.83
2023-03-29T23:08:30.122Z,100104.17
2023-03-29T23:12:38.117Z,100099.95
2023-03-29T23:16:46.583Z,100095.48
2023-03-29T23:20:59.143Z,100092.80
2023-03-29T23:25:08.357Z,100091.98
2023-03-29T23:29:17.129Z,100094.95
2023-03-29T23:33:25.877Z,100090.90
2023-03-29T23:37:34.613Z,100088.11
2023-03-29T23:41:42.371Z,100088.52
2023-03-29T23:45:50.565Z,100085.72
2023-03-29T23:50:02.362Z,100082.77
2023-03-29T23:54:10.501Z,100080.30
2023-03-29T23:58:19.478Z,100073.07
